SBOSBO MSY / KMSY
Speedbird OnlineSpeedbird Online MSY / KMSY

Louis Armstrong New Orleans International Airport
02:35 20.7°C

Location New Orleans, United States
Latitude: 29.99340057373047
Longitude: -90.25800323486328
Web Wikipedia
Altitude 1 Meter / 4 Feet
Distance 7,472 KM / 4,643 Miles
from London.
Time Zone UTC -5 hours (America/Chicago)
Codes IATA: MSY
ICAO: KMSY
Currency £1 equals USD 1.13
Runways
RunwayLength (m)Surface
022134Asphalt
061088Asphalt
113080Partial
202134Asphalt
241088Asphalt
293080Partial
Radio
TypeDescriptionFrequency
A/DNEW ORLEANS APP/DEP123.85
ATISATIS127.55
CLDCLNC DEL127.2
GNDGND121.9
TWRTWR119.5
UNICUNICOM122.95
Live ATC
METAR KMSY 060653Z 22003KT 10SM BKN065 21/17 A3009 RMK AO2 SLP193 T02060172
TAF KMSY 060520Z 0606/0712 21005KT P6SM FEW060 FM061600 35005KT P6SM FEW250
Weather As Of 06 Oct 2022 02:35
Description Broken clouds
Wind 6 km/h from South-West (220°)
Cloud Cover 75%
Precipitation Rain: none, Snow: none
Sunrise 06:57
Sunset 18:40
Lounges The Club at MSY, Main Terminal
Rotations During the last 90 days there were
51 flights from LHR
48 flights to LHR


© 2017-2022 Speedbird Online